Terminal Aerodrome Forecast
Issued by NWS

Home | Current Version | Previous Version | Text Only | Print | Product List | Glossary Off
Versions: 1 2 3 4 5 6 7 8 9 10 11 12

000
FTUS43 KFGF 230500
TAFBJI
TAF
KBJI 230520Z 2306/2406 20007KT P6SM OVC025
      TEMPO 2306/2308 BKN040
     FM230800 19006KT P6SM BKN050
      TEMPO 2309/2312 2SM BR SCT050
     FM231500 22007KT P6SM SKC=

USA.gov is the U.S. government's official web portal to all federal, state and local government web resources and services.